sensor_id;sensor_type;location;lat;lon;timestamp;temperature;humidity
15749;DHT22;7976;52.526;13.326;2023-08-08T00:02:26;15.00;99.90
15749;DHT22;7976;52.526;13.326;2023-08-08T00:04:53;15.00;99.90
15749;DHT22;7976;52.526;13.326;2023-08-08T00:07:20;15.00;99.90
15749;DHT22;7976;52.526;13.326;2023-08-08T00:09:47;15.00;99.90
15749;DHT22;7976;52.526;13.326;2023-08-08T00:12:14;15.00;99.90
15749;DHT22;7976;52.526;13.326;2023-08-08T00:14:41;15.00;99.90
15749;DHT22;7976;52.526;13.326;2023-08-08T00:17:08;14.90;99.90
15749;DHT22;7976;52.526;13.326;2023-08-08T00:19:36;14.90;99.90
15749;DHT22;7976;52.526;13.326;2023-08-08T00:22:03;14.90;99.90
15749;DHT22;7976;52.526;13.326;2023-08-08T00:24:30;14.90;99.90
15749;DHT22;7976;52.526;13.326;2023-08-08T00:26:57;14.80;99.90
15749;DHT22;7976;52.526;13.326;2023-08-08T00:29:24;14.80;99.90
15749;DHT22;7976;52.526;13.326;2023-08-08T00:31:51;14.80;99.90
15749;DHT22;7976;52.526;13.326;2023-08-08T00:34:18;14.80;99.90
15749;DHT22;7976;52.526;13.326;2023-08-08T00:36:47;14.80;99.90
15749;DHT22;7976;52.526;13.326;2023-08-08T00:39:14;14.80;99.90
15749;DHT22;7976;52.526;13.326;2023-08-08T00:41:41;14.80;99.90
15749;DHT22;7976;52.526;13.326;2023-08-08T00:44:08;14.80;99.90
15749;DHT22;7976;52.526;13.326;2023-08-08T00:46:35;14.70;99.90
15749;DHT22;7976;52.526;13.326;2023-08-08T00:49:02;14.70;99.90
15749;DHT22;7976;52.526;13.326;2023-08-08T00:51:30;14.70;99.90
15749;DHT22;7976;52.526;13.326;2023-08-08T00:53:59;14.70;99.90
15749;DHT22;7976;52.526;13.326;2023-08-08T00:56:27;14.70;99.90
15749;DHT22;7976;52.526;13.326;2023-08-08T00:58:54;14.70;99.90
15749;DHT22;7976;52.526;13.326;2023-08-08T01:01:23;14.70;99.90
15749;DHT22;7976;52.526;13.326;2023-08-08T01:03:50;14.60;99.90
15749;DHT22;7976;52.526;13.326;2023-08-08T01:06:23;14.60;99.90
15749;DHT22;7976;52.526;13.326;2023-08-08T01:09:00;14.60;99.90
15749;DHT22;7976;52.526;13.326;2023-08-08T01:11:31;14.60;99.90
15749;DHT22;7976;52.526;13.326;2023-08-08T01:14:01;14.50;99.90
15749;DHT22;7976;52.526;13.326;2023-08-08T01:16:30;14.50;99.90
15749;DHT22;7976;52.526;13.326;2023-08-08T01:18:58;14.50;99.90
15749;DHT22;7976;52.526;13.326;2023-08-08T01:21:27;14.50;99.90
15749;DHT22;7976;52.526;13.326;2023-08-08T01:24:12;14.50;99.90
15749;DHT22;7976;52.526;13.326;2023-08-08T01:26:42;14.50;99.90
15749;DHT22;7976;52.526;13.326;2023-08-08T01:29:09;14.50;99.90
15749;DHT22;7976;52.526;13.326;2023-08-08T01:31:36;14.50;99.90
15749;DHT22;7976;52.526;13.326;2023-08-08T01:34:04;14.40;99.90
15749;DHT22;7976;52.526;13.326;2023-08-08T01:36:35;14.40;99.90
15749;DHT22;7976;52.526;13.326;2023-08-08T01:39:14;14.40;99.90
15749;DHT22;7976;52.526;13.326;2023-08-08T01:41:47;14.40;99.90
15749;DHT22;7976;52.526;13.326;2023-08-08T01:44:17;14.40;99.90
15749;DHT22;7976;52.526;13.326;2023-08-08T01:46:45;14.40;99.90
15749;DHT22;7976;52.526;13.326;2023-08-08T01:49:13;14.30;99.90
15749;DHT22;7976;52.526;13.326;2023-08-08T01:51:40;14.30;99.90
15749;DHT22;7976;52.526;13.326;2023-08-08T01:54:08;14.30;99.90
15749;DHT22;7976;52.526;13.326;2023-08-08T01:56:37;14.30;99.90
15749;DHT22;7976;52.526;13.326;2023-08-08T01:59:04;14.30;99.90
15749;DHT22;7976;52.526;13.326;2023-08-08T02:01:31;14.40;99.90
15749;DHT22;7976;52.526;13.326;2023-08-08T02:03:58;14.30;99.90
15749;DHT22;7976;52.526;13.326;2023-08-08T02:06:26;14.40;99.90
15749;DHT22;7976;52.526;13.326;2023-08-08T02:08:53;14.40;99.90
15749;DHT22;7976;52.526;13.326;2023-08-08T02:11:20;14.30;99.90
15749;DHT22;7976;52.526;13.326;2023-08-08T02:13:50;14.30;99.90
15749;DHT22;7976;52.526;13.326;2023-08-08T02:16:17;14.30;99.90
15749;DHT22;7976;52.526;13.326;2023-08-08T02:18:44;14.30;99.90
15749;DHT22;7976;52.526;13.326;2023-08-08T02:21:10;14.30;99.90
15749;DHT22;7976;52.526;13.326;2023-08-08T02:23:37;14.30;99.90
15749;DHT22;7976;52.526;13.326;2023-08-08T02:26:05;14.30;99.90
15749;DHT22;7976;52.526;13.326;2023-08-08T02:28:32;14.30;99.90
15749;DHT22;7976;52.526;13.326;2023-08-08T02:31:01;14.30;99.90
15749;DHT22;7976;52.526;13.326;2023-08-08T02:33:27;14.30;99.90
15749;DHT22;7976;52.526;13.326;2023-08-08T02:35:54;14.30;99.90
15749;DHT22;7976;52.526;13.326;2023-08-08T02:38:22;14.30;99.90
15749;DHT22;7976;52.526;13.326;2023-08-08T02:40:49;14.20;99.90
15749;DHT22;7976;52.526;13.326;2023-08-08T02:43:16;14.20;99.90
15749;DHT22;7976;52.526;13.326;2023-08-08T02:45:43;14.20;99.90
15749;DHT22;7976;52.526;13.326;2023-08-08T02:48:11;14.10;99.90
15749;DHT22;7976;52.526;13.326;2023-08-08T02:50:38;14.10;99.90
15749;DHT22;7976;52.526;13.326;2023-08-08T02:53:06;14.10;99.90
15749;DHT22;7976;52.526;13.326;2023-08-08T02:55:39;14.10;99.90
15749;DHT22;7976;52.526;13.326;2023-08-08T02:58:06;14.10;99.90
15749;DHT22;7976;52.526;13.326;2023-08-08T03:00:33;14.00;99.90
15749;DHT22;7976;52.526;13.326;2023-08-08T03:03:01;14.00;99.90
15749;DHT22;7976;52.526;13.326;2023-08-08T03:05:30;14.00;99.90
15749;DHT22;7976;52.526;13.326;2023-08-08T03:07:57;14.00;99.90
15749;DHT22;7976;52.526;13.326;2023-08-08T03:10:25;14.00;99.90
15749;DHT22;7976;52.526;13.326;2023-08-08T03:12:52;14.00;99.90
15749;DHT22;7976;52.526;13.326;2023-08-08T03:15:20;14.00;99.90
15749;DHT22;7976;52.526;13.326;2023-08-08T03:17:48;14.00;99.90
15749;DHT22;7976;52.526;13.326;2023-08-08T03:20:15;14.00;99.90
15749;DHT22;7976;52.526;13.326;2023-08-08T03:22:44;13.90;99.90
15749;DHT22;7976;52.526;13.326;2023-08-08T03:25:11;13.90;99.90
15749;DHT22;7976;52.526;13.326;2023-08-08T03:27:38;14.00;99.90
15749;DHT22;7976;52.526;13.326;2023-08-08T03:30:06;13.90;99.90
15749;DHT22;7976;52.526;13.326;2023-08-08T03:32:39;13.90;99.90
15749;DHT22;7976;52.526;13.326;2023-08-08T03:35:07;13.90;99.90
15749;DHT22;7976;52.526;13.326;2023-08-08T03:37:37;13.90;99.90
15749;DHT22;7976;52.526;13.326;2023-08-08T03:40:07;13.90;99.90
15749;DHT22;7976;52.526;13.326;2023-08-08T03:42:34;13.90;99.90
15749;DHT22;7976;52.526;13.326;2023-08-08T03:45:01;13.90;99.90
15749;DHT22;7976;52.526;13.326;2023-08-08T03:47:29;13.90;99.90
15749;DHT22;7976;52.526;13.326;2023-08-08T03:49:55;13.90;99.90
15749;DHT22;7976;52.526;13.326;2023-08-08T03:52:23;13.90;99.90
15749;DHT22;7976;52.526;13.326;2023-08-08T03:54:51;14.00;99.90
15749;DHT22;7976;52.526;13.326;2023-08-08T03:57:19;14.00;99.90
15749;DHT22;7976;52.526;13.326;2023-08-08T03:59:46;14.00;99.90
15749;DHT22;7976;52.526;13.326;2023-08-08T04:02:13;14.00;99.90
15749;DHT22;7976;52.526;13.326;2023-08-08T04:04:41;14.00;99.90
15749;DHT22;7976;52.526;13.326;2023-08-08T04:07:07;14.00;99.90
15749;DHT22;7976;52.526;13.326;2023-08-08T04:09:35;14.00;99.90
15749;DHT22;7976;52.526;13.326;2023-08-08T04:12:02;14.10;99.90
15749;DHT22;7976;52.526;13.326;2023-08-08T04:14:30;14.10;99.90
15749;DHT22;7976;52.526;13.326;2023-08-08T04:16:58;14.10;99.90
15749;DHT22;7976;52.526;13.326;2023-08-08T04:19:25;14.10;99.90
15749;DHT22;7976;52.526;13.326;2023-08-08T04:21:52;14.10;99.90
15749;DHT22;7976;52.526;13.326;2023-08-08T04:24:18;14.10;99.90
15749;DHT22;7976;52.526;13.326;2023-08-08T04:26:45;14.20;99.90
15749;DHT22;7976;52.526;13.326;2023-08-08T04:29:12;14.20;99.90
15749;DHT22;7976;52.526;13.326;2023-08-08T04:31:40;14.20;99.90
15749;DHT22;7976;52.526;13.326;2023-08-08T04:34:07;14.20;99.90
15749;DHT22;7976;52.526;13.326;2023-08-08T04:36:34;14.20;99.90
15749;DHT22;7976;52.526;13.326;2023-08-08T04:39:01;14.20;99.90
15749;DHT22;7976;52.526;13.326;2023-08-08T04:41:27;14.20;99.90
15749;DHT22;7976;52.526;13.326;2023-08-08T04:43:54;14.20;99.90
15749;DHT22;7976;52.526;13.326;2023-08-08T04:46:21;14.20;99.90
15749;DHT22;7976;52.526;13.326;2023-08-08T04:48:49;14.20;99.90
15749;DHT22;7976;52.526;13.326;2023-08-08T04:51:16;14.20;99.90
15749;DHT22;7976;52.526;13.326;2023-08-08T04:53:43;14.20;99.90
15749;DHT22;7976;52.526;13.326;2023-08-08T04:56:10;14.30;99.90
15749;DHT22;7976;52.526;13.326;2023-08-08T04:58:37;14.30;99.90
15749;DHT22;7976;52.526;13.326;2023-08-08T05:01:04;14.40;99.90
15749;DHT22;7976;52.526;13.326;2023-08-08T05:03:31;14.40;99.90
15749;DHT22;7976;52.526;13.326;2023-08-08T05:05:59;14.40;99.90
15749;DHT22;7976;52.526;13.326;2023-08-08T05:08:27;14.40;99.90
15749;DHT22;7976;52.526;13.326;2023-08-08T05:10:54;14.40;99.90
15749;DHT22;7976;52.526;13.326;2023-08-08T05:13:21;14.40;99.90
15749;DHT22;7976;52.526;13.326;2023-08-08T05:15:48;14.40;99.90
15749;DHT22;7976;52.526;13.326;2023-08-08T05:18:15;14.40;99.90
15749;DHT22;7976;52.526;13.326;2023-08-08T05:20:42;14.40;99.90
15749;DHT22;7976;52.526;13.326;2023-08-08T05:23:10;14.40;99.90
15749;DHT22;7976;52.526;13.326;2023-08-08T05:25:37;14.40;99.90
15749;DHT22;7976;52.526;13.326;2023-08-08T05:28:05;14.40;99.90
15749;DHT22;7976;52.526;13.326;2023-08-08T05:30:32;14.40;99.90
15749;DHT22;7976;52.526;13.326;2023-08-08T05:33:00;14.40;99.90
15749;DHT22;7976;52.526;13.326;2023-08-08T05:35:27;14.50;99.90
15749;DHT22;7976;52.526;13.326;2023-08-08T05:37:54;14.60;99.90
15749;DHT22;7976;52.526;13.326;2023-08-08T05:40:22;14.60;99.90
15749;DHT22;7976;52.526;13.326;2023-08-08T05:42:49;14.70;99.90
15749;DHT22;7976;52.526;13.326;2023-08-08T05:45:16;14.80;99.90
15749;DHT22;7976;52.526;13.326;2023-08-08T05:47:43;14.90;99.90
15749;DHT22;7976;52.526;13.326;2023-08-08T05:50:10;15.00;99.90
15749;DHT22;7976;52.526;13.326;2023-08-08T05:52:37;15.10;99.90
15749;DHT22;7976;52.526;13.326;2023-08-08T05:55:06;15.10;99.90
15749;DHT22;7976;52.526;13.326;2023-08-08T05:57:37;15.10;99.90
15749;DHT22;7976;52.526;13.326;2023-08-08T06:00:05;15.10;99.90
15749;DHT22;7976;52.526;13.326;2023-08-08T06:02:39;15.00;99.90
15749;DHT22;7976;52.526;13.326;2023-08-08T06:05:07;15.00;99.90
15749;DHT22;7976;52.526;13.326;2023-08-08T06:07:37;15.10;99.90
15749;DHT22;7976;52.526;13.326;2023-08-08T06:10:05;15.20;99.90
15749;DHT22;7976;52.526;13.326;2023-08-08T06:12:33;15.20;99.90
15749;DHT22;7976;52.526;13.326;2023-08-08T06:15:02;15.20;99.90
15749;DHT22;7976;52.526;13.326;2023-08-08T06:17:29;15.30;99.90
15749;DHT22;7976;52.526;13.326;2023-08-08T06:19:56;15.30;99.90
15749;DHT22;7976;52.526;13.326;2023-08-08T06:22:23;15.40;99.90
15749;DHT22;7976;52.526;13.326;2023-08-08T06:24:50;15.30;99.90
15749;DHT22;7976;52.526;13.326;2023-08-08T06:27:18;15.40;99.90
15749;DHT22;7976;52.526;13.326;2023-08-08T06:29:45;15.50;99.90
15749;DHT22;7976;52.526;13.326;2023-08-08T06:32:16;15.60;99.90
15749;DHT22;7976;52.526;13.326;2023-08-08T06:34:43;15.70;99.90
15749;DHT22;7976;52.526;13.326;2023-08-08T06:37:09;15.70;99.90
15749;DHT22;7976;52.526;13.326;2023-08-08T06:39:36;15.70;99.90
15749;DHT22;7976;52.526;13.326;2023-08-08T06:42:04;15.70;99.90
15749;DHT22;7976;52.526;13.326;2023-08-08T06:44:43;15.70;99.90
15749;DHT22;7976;52.526;13.326;2023-08-08T06:47:11;15.70;99.90
15749;DHT22;7976;52.526;13.326;2023-08-08T06:49:39;15.70;99.90
15749;DHT22;7976;52.526;13.326;2023-08-08T06:52:06;15.60;99.90
15749;DHT22;7976;52.526;13.326;2023-08-08T06:54:33;15.60;99.90
15749;DHT22;7976;52.526;13.326;2023-08-08T06:57:00;15.60;99.90
15749;DHT22;7976;52.526;13.326;2023-08-08T06:59:27;15.60;99.90
15749;DHT22;7976;52.526;13.326;2023-08-08T07:01:54;15.70;99.90
15749;DHT22;7976;52.526;13.326;2023-08-08T07:04:22;15.80;99.90
15749;DHT22;7976;52.526;13.326;2023-08-08T07:06:51;15.80;99.90
15749;DHT22;7976;52.526;13.326;2023-08-08T07:09:17;15.90;99.90
15749;DHT22;7976;52.526;13.326;2023-08-08T07:11:44;16.00;99.90
15749;DHT22;7976;52.526;13.326;2023-08-08T07:14:11;16.00;99.90
15749;DHT22;7976;52.526;13.326;2023-08-08T07:16:38;16.10;99.90
15749;DHT22;7976;52.526;13.326;2023-08-08T07:19:05;16.20;99.90
15749;DHT22;7976;52.526;13.326;2023-08-08T07:21:32;16.20;99.90
15749;DHT22;7976;52.526;13.326;2023-08-08T07:24:08;16.30;99.90
15749;DHT22;7976;52.526;13.326;2023-08-08T07:26:45;16.30;99.90
15749;DHT22;7976;52.526;13.326;2023-08-08T07:29:12;16.30;99.90
15749;DHT22;7976;52.526;13.326;2023-08-08T07:31:38;16.30;99.90
15749;DHT22;7976;52.526;13.326;2023-08-08T07:34:05;16.30;99.90
15749;DHT22;7976;52.526;13.326;2023-08-08T07:36:32;16.20;99.90
15749;DHT22;7976;52.526;13.326;2023-08-08T07:38:59;16.20;99.90
15749;DHT22;7976;52.526;13.326;2023-08-08T07:41:29;16.40;99.90
15749;DHT22;7976;52.526;13.326;2023-08-08T07:43:57;16.50;99.90
15749;DHT22;7976;52.526;13.326;2023-08-08T07:46:24;16.60;99.90
15749;DHT22;7976;52.526;13.326;2023-08-08T07:48:51;16.80;99.90
15749;DHT22;7976;52.526;13.326;2023-08-08T07:51:18;16.80;99.90
15749;DHT22;7976;52.526;13.326;2023-08-08T07:53:45;16.80;99.90
15749;DHT22;7976;52.526;13.326;2023-08-08T07:56:12;16.90;99.90
15749;DHT22;7976;52.526;13.326;2023-08-08T07:58:40;16.90;99.90
15749;DHT22;7976;52.526;13.326;2023-08-08T08:01:06;16.80;99.90
15749;DHT22;7976;52.526;13.326;2023-08-08T08:03:38;16.80;99.90
15749;DHT22;7976;52.526;13.326;2023-08-08T08:06:05;16.90;99.90
15749;DHT22;7976;52.526;13.326;2023-08-08T08:08:32;16.90;99.90
15749;DHT22;7976;52.526;13.326;2023-08-08T08:11:00;17.00;99.90
15749;DHT22;7976;52.526;13.326;2023-08-08T08:13:27;17.10;99.90
15749;DHT22;7976;52.526;13.326;2023-08-08T08:15:56;17.10;99.90
15749;DHT22;7976;52.526;13.326;2023-08-08T08:18:23;17.10;99.90
15749;DHT22;7976;52.526;13.326;2023-08-08T08:20:50;17.20;99.90
15749;DHT22;7976;52.526;13.326;2023-08-08T08:23:17;17.30;99.90
15749;DHT22;7976;52.526;13.326;2023-08-08T08:25:44;17.30;99.90
15749;DHT22;7976;52.526;13.326;2023-08-08T08:28:11;17.40;99.90
15749;DHT22;7976;52.526;13.326;2023-08-08T08:30:38;17.40;99.90
15749;DHT22;7976;52.526;13.326;2023-08-08T08:33:06;17.40;99.90
15749;DHT22;7976;52.526;13.326;2023-08-08T08:35:33;17.40;99.90
15749;DHT22;7976;52.526;13.326;2023-08-08T08:38:02;17.30;99.90
15749;DHT22;7976;52.526;13.326;2023-08-08T08:40:36;17.30;99.90
15749;DHT22;7976;52.526;13.326;2023-08-08T08:43:06;17.30;99.90
15749;DHT22;7976;52.526;13.326;2023-08-08T08:45:37;17.30;99.90
15749;DHT22;7976;52.526;13.326;2023-08-08T08:48:09;17.30;99.90
15749;DHT22;7976;52.526;13.326;2023-08-08T08:50:38;17.30;99.90
15749;DHT22;7976;52.526;13.326;2023-08-08T08:53:07;17.30;99.90
15749;DHT22;7976;52.526;13.326;2023-08-08T08:55:34;17.40;99.90
15749;DHT22;7976;52.526;13.326;2023-08-08T08:58:01;17.50;99.90
15749;DHT22;7976;52.526;13.326;2023-08-08T09:00:28;17.60;99.90
15749;DHT22;7976;52.526;13.326;2023-08-08T09:02:57;17.60;99.90
15749;DHT22;7976;52.526;13.326;2023-08-08T09:05:26;17.70;99.90
15749;DHT22;7976;52.526;13.326;2023-08-08T09:07:53;17.80;99.90
15749;DHT22;7976;52.526;13.326;2023-08-08T09:10:20;17.90;99.90
15749;DHT22;7976;52.526;13.326;2023-08-08T09:12:47;18.00;99.90
15749;DHT22;7976;52.526;13.326;2023-08-08T09:15:15;18.00;99.90
15749;DHT22;7976;52.526;13.326;2023-08-08T09:17:43;17.90;99.90
15749;DHT22;7976;52.526;13.326;2023-08-08T09:20:12;17.90;99.90
15749;DHT22;7976;52.526;13.326;2023-08-08T09:22:41;17.90;99.90
15749;DHT22;7976;52.526;13.326;2023-08-08T09:25:08;17.80;99.90
15749;DHT22;7976;52.526;13.326;2023-08-08T09:27:35;17.80;99.90
15749;DHT22;7976;52.526;13.326;2023-08-08T09:30:03;17.80;99.90
15749;DHT22;7976;52.526;13.326;2023-08-08T09:32:31;18.00;99.90
15749;DHT22;7976;52.526;13.326;2023-08-08T09:34:58;17.90;99.90
15749;DHT22;7976;52.526;13.326;2023-08-08T09:37:29;18.00;99.90
15749;DHT22;7976;52.526;13.326;2023-08-08T09:39:58;18.10;99.90
15749;DHT22;7976;52.526;13.326;2023-08-08T09:42:26;18.10;99.90
15749;DHT22;7976;52.526;13.326;2023-08-08T09:44:56;18.20;99.90
15749;DHT22;7976;52.526;13.326;2023-08-08T09:47:24;18.30;99.90
15749;DHT22;7976;52.526;13.326;2023-08-08T09:49:58;18.50;99.90
15749;DHT22;7976;52.526;13.326;2023-08-08T09:52:27;18.50;99.90
15749;DHT22;7976;52.526;13.326;2023-08-08T09:54:55;18.30;99.90
15749;DHT22;7976;52.526;13.326;2023-08-08T09:57:24;18.10;99.90
15749;DHT22;7976;52.526;13.326;2023-08-08T09:59:52;17.90;99.90
15749;DHT22;7976;52.526;13.326;2023-08-08T10:02:19;17.60;99.90
15749;DHT22;7976;52.526;13.326;2023-08-08T10:04:46;17.20;99.90
15749;DHT22;7976;52.526;13.326;2023-08-08T10:07:14;16.80;99.90
15749;DHT22;7976;52.526;13.326;2023-08-08T10:09:41;16.50;99.90
15749;DHT22;7976;52.526;13.326;2023-08-08T10:12:10;16.40;99.90
15749;DHT22;7976;52.526;13.326;2023-08-08T10:14:42;16.20;99.90
15749;DHT22;7976;52.526;13.326;2023-08-08T10:17:13;16.00;99.90
15749;DHT22;7976;52.526;13.326;2023-08-08T10:19:50;16.00;99.90
15749;DHT22;7976;52.526;13.326;2023-08-08T10:22:21;15.90;99.90
15749;DHT22;7976;52.526;13.326;2023-08-08T10:24:51;15.90;99.90
15749;DHT22;7976;52.526;13.326;2023-08-08T10:27:28;15.90;99.90
15749;DHT22;7976;52.526;13.326;2023-08-08T10:30:03;16.10;99.90
15749;DHT22;7976;52.526;13.326;2023-08-08T10:32:38;16.30;99.90
15749;DHT22;7976;52.526;13.326;2023-08-08T10:35:12;16.50;99.90
15749;DHT22;7976;52.526;13.326;2023-08-08T10:37:40;16.70;99.90
15749;DHT22;7976;52.526;13.326;2023-08-08T10:40:19;16.70;99.90
15749;DHT22;7976;52.526;13.326;2023-08-08T10:42:46;16.70;99.90
15749;DHT22;7976;52.526;13.326;2023-08-08T10:45:16;16.60;99.90
15749;DHT22;7976;52.526;13.326;2023-08-08T10:47:44;16.50;99.90
15749;DHT22;7976;52.526;13.326;2023-08-08T10:50:12;16.30;99.90
15749;DHT22;7976;52.526;13.326;2023-08-08T10:52:55;16.20;99.90
15749;DHT22;7976;52.526;13.326;2023-08-08T10:55:24;16.20;99.90
15749;DHT22;7976;52.526;13.326;2023-08-08T10:57:54;16.20;99.90
15749;DHT22;7976;52.526;13.326;2023-08-08T11:00:27;16.30;99.90
15749;DHT22;7976;52.526;13.326;2023-08-08T11:02:55;16.40;99.90
15749;DHT22;7976;52.526;13.326;2023-08-08T11:05:24;16.50;99.90
15749;DHT22;7976;52.526;13.326;2023-08-08T11:07:53;16.60;99.90
15749;DHT22;7976;52.526;13.326;2023-08-08T11:10:22;16.70;99.90
15749;DHT22;7976;52.526;13.326;2023-08-08T11:12:54;16.90;99.90
15749;DHT22;7976;52.526;13.326;2023-08-08T11:15:22;17.10;99.90
15749;DHT22;7976;52.526;13.326;2023-08-08T11:17:53;17.30;99.90
15749;DHT22;7976;52.526;13.326;2023-08-08T11:20:21;17.60;99.90
15749;DHT22;7976;52.526;13.326;2023-08-08T11:22:52;17.70;99.90
15749;DHT22;7976;52.526;13.326;2023-08-08T11:25:20;17.70;99.90
15749;DHT22;7976;52.526;13.326;2023-08-08T11:27:51;17.70;99.90
15749;DHT22;7976;52.526;13.326;2023-08-08T11:30:18;17.60;99.90
15749;DHT22;7976;52.526;13.326;2023-08-08T11:32:49;17.50;99.90
15749;DHT22;7976;52.526;13.326;2023-08-08T11:35:17;17.50;99.90
15749;DHT22;7976;52.526;13.326;2023-08-08T11:37:48;17.30;99.90
15749;DHT22;7976;52.526;13.326;2023-08-08T11:40:17;17.10;99.90
15749;DHT22;7976;52.526;13.326;2023-08-08T11:42:46;17.10;99.90
15749;DHT22;7976;52.526;13.326;2023-08-08T11:45:16;17.00;99.90
15749;DHT22;7976;52.526;13.326;2023-08-08T11:47:44;17.10;99.90
15749;DHT22;7976;52.526;13.326;2023-08-08T11:50:16;17.20;99.90
15749;DHT22;7976;52.526;13.326;2023-08-08T11:52:46;17.40;99.90
15749;DHT22;7976;52.526;13.326;2023-08-08T11:55:13;17.60;99.90
15749;DHT22;7976;52.526;13.326;2023-08-08T11:57:41;17.80;99.90
15749;DHT22;7976;52.526;13.326;2023-08-08T12:00:09;18.00;99.90
15749;DHT22;7976;52.526;13.326;2023-08-08T12:02:42;18.20;99.90
15749;DHT22;7976;52.526;13.326;2023-08-08T12:05:11;18.30;99.90
15749;DHT22;7976;52.526;13.326;2023-08-08T12:07:43;18.50;99.90
15749;DHT22;7976;52.526;13.326;2023-08-08T12:10:15;18.60;99.90
15749;DHT22;7976;52.526;13.326;2023-08-08T12:12:43;18.70;99.90
15749;DHT22;7976;52.526;13.326;2023-08-08T12:15:11;18.80;99.90
15749;DHT22;7976;52.526;13.326;2023-08-08T12:17:38;18.90;99.90
15749;DHT22;7976;52.526;13.326;2023-08-08T12:20:07;18.90;99.90
15749;DHT22;7976;52.526;13.326;2023-08-08T12:22:35;19.00;99.90
15749;DHT22;7976;52.526;13.326;2023-08-08T12:25:04;19.10;99.90
15749;DHT22;7976;52.526;13.326;2023-08-08T12:27:32;19.30;99.90
15749;DHT22;7976;52.526;13.326;2023-08-08T12:29:58;19.30;99.90
15749;DHT22;7976;52.526;13.326;2023-08-08T12:32:26;19.40;99.90
15749;DHT22;7976;52.526;13.326;2023-08-08T12:34:54;19.40;99.90
15749;DHT22;7976;52.526;13.326;2023-08-08T12:37:22;19.40;99.90
15749;DHT22;7976;52.526;13.326;2023-08-08T12:39:49;19.40;99.90
15749;DHT22;7976;52.526;13.326;2023-08-08T12:42:18;19.20;99.90
15749;DHT22;7976;52.526;13.326;2023-08-08T12:44:45;19.20;99.90
15749;DHT22;7976;52.526;13.326;2023-08-08T12:47:16;19.10;99.90
15749;DHT22;7976;52.526;13.326;2023-08-08T12:49:43;19.00;99.90
15749;DHT22;7976;52.526;13.326;2023-08-08T12:52:10;19.00;99.90
15749;DHT22;7976;52.526;13.326;2023-08-08T12:54:37;19.10;99.90
15749;DHT22;7976;52.526;13.326;2023-08-08T12:57:04;19.10;99.90
15749;DHT22;7976;52.526;13.326;2023-08-08T12:59:32;19.00;99.90
15749;DHT22;7976;52.526;13.326;2023-08-08T13:01:59;18.90;99.90
15749;DHT22;7976;52.526;13.326;2023-08-08T13:04:26;18.90;99.90
15749;DHT22;7976;52.526;13.326;2023-08-08T13:06:53;19.00;99.90
15749;DHT22;7976;52.526;13.326;2023-08-08T13:09:20;19.10;99.90
15749;DHT22;7976;52.526;13.326;2023-08-08T13:11:46;19.20;99.90
15749;DHT22;7976;52.526;13.326;2023-08-08T13:14:13;19.30;99.90
15749;DHT22;7976;52.526;13.326;2023-08-08T13:16:41;19.40;99.90
15749;DHT22;7976;52.526;13.326;2023-08-08T13:19:08;19.50;99.90
15749;DHT22;7976;52.526;13.326;2023-08-08T13:21:35;19.60;99.90
15749;DHT22;7976;52.526;13.326;2023-08-08T13:24:02;19.70;99.90
15749;DHT22;7976;52.526;13.326;2023-08-08T13:26:30;19.70;99.90
15749;DHT22;7976;52.526;13.326;2023-08-08T13:28:56;19.70;99.90
15749;DHT22;7976;52.526;13.326;2023-08-08T13:31:23;19.60;99.90
15749;DHT22;7976;52.526;13.326;2023-08-08T13:33:51;19.50;99.90
15749;DHT22;7976;52.526;13.326;2023-08-08T13:36:18;19.40;99.90
15749;DHT22;7976;52.526;13.326;2023-08-08T13:38:45;19.20;99.90
15749;DHT22;7976;52.526;13.326;2023-08-08T13:41:12;19.00;99.90
15749;DHT22;7976;52.526;13.326;2023-08-08T13:43:39;18.60;99.90
15749;DHT22;7976;52.526;13.326;2023-08-08T13:46:05;17.80;99.90
15749;DHT22;7976;52.526;13.326;2023-08-08T13:48:35;17.00;99.90
15749;DHT22;7976;52.526;13.326;2023-08-08T13:51:03;16.40;99.90
15749;DHT22;7976;52.526;13.326;2023-08-08T13:53:30;16.00;99.90
15749;DHT22;7976;52.526;13.326;2023-08-08T13:55:57;15.80;99.90
15749;DHT22;7976;52.526;13.326;2023-08-08T13:58:24;15.70;99.90
15749;DHT22;7976;52.526;13.326;2023-08-08T14:00:51;15.60;99.90
15749;DHT22;7976;52.526;13.326;2023-08-08T14:03:18;15.60;99.90
15749;DHT22;7976;52.526;13.326;2023-08-08T14:05:45;15.70;99.90
15749;DHT22;7976;52.526;13.326;2023-08-08T14:08:13;15.80;99.90
15749;DHT22;7976;52.526;13.326;2023-08-08T14:10:41;15.80;99.90
15749;DHT22;7976;52.526;13.326;2023-08-08T14:13:08;15.80;99.90
15749;DHT22;7976;52.526;13.326;2023-08-08T14:15:37;15.70;99.90
15749;DHT22;7976;52.526;13.326;2023-08-08T14:18:07;15.70;99.90
15749;DHT22;7976;52.526;13.326;2023-08-08T14:20:34;15.70;99.90
15749;DHT22;7976;52.526;13.326;2023-08-08T14:23:01;15.80;99.90
15749;DHT22;7976;52.526;13.326;2023-08-08T14:25:29;15.80;99.90
15749;DHT22;7976;52.526;13.326;2023-08-08T14:27:56;15.90;99.90
15749;DHT22;7976;52.526;13.326;2023-08-08T14:30:24;15.90;99.90
15749;DHT22;7976;52.526;13.326;2023-08-08T14:32:52;15.90;99.90
15749;DHT22;7976;52.526;13.326;2023-08-08T14:35:20;16.00;99.90
15749;DHT22;7976;52.526;13.326;2023-08-08T14:37:47;16.00;99.90
15749;DHT22;7976;52.526;13.326;2023-08-08T14:40:13;16.10;99.90
15749;DHT22;7976;52.526;13.326;2023-08-08T14:42:42;16.20;99.90
15749;DHT22;7976;52.526;13.326;2023-08-08T14:45:09;16.30;99.90
15749;DHT22;7976;52.526;13.326;2023-08-08T14:47:36;16.40;99.90
15749;DHT22;7976;52.526;13.326;2023-08-08T14:50:04;16.50;99.90
15749;DHT22;7976;52.526;13.326;2023-08-08T14:52:33;16.50;99.90
15749;DHT22;7976;52.526;13.326;2023-08-08T14:55:00;16.70;99.90
15749;DHT22;7976;52.526;13.326;2023-08-08T14:57:27;16.80;99.90
15749;DHT22;7976;52.526;13.326;2023-08-08T14:59:58;16.90;99.90
15749;DHT22;7976;52.526;13.326;2023-08-08T15:02:25;16.90;99.90
15749;DHT22;7976;52.526;13.326;2023-08-08T15:04:52;16.90;99.90
15749;DHT22;7976;52.526;13.326;2023-08-08T15:07:19;16.90;99.90
15749;DHT22;7976;52.526;13.326;2023-08-08T15:09:46;16.90;99.90
15749;DHT22;7976;52.526;13.326;2023-08-08T15:12:14;16.80;99.90
15749;DHT22;7976;52.526;13.326;2023-08-08T15:14:43;16.80;99.90
15749;DHT22;7976;52.526;13.326;2023-08-08T15:17:12;16.70;99.90
15749;DHT22;7976;52.526;13.326;2023-08-08T15:19:39;16.70;99.90
15749;DHT22;7976;52.526;13.326;2023-08-08T15:22:06;16.60;99.90
15749;DHT22;7976;52.526;13.326;2023-08-08T15:24:33;16.50;99.90
15749;DHT22;7976;52.526;13.326;2023-08-08T15:27:02;16.50;99.90
15749;DHT22;7976;52.526;13.326;2023-08-08T15:29:30;16.40;99.90
15749;DHT22;7976;52.526;13.326;2023-08-08T15:31:57;16.20;99.90
15749;DHT22;7976;52.526;13.326;2023-08-08T15:34:25;15.90;99.90
15749;DHT22;7976;52.526;13.326;2023-08-08T15:36:53;15.60;99.90